sensor_id;sensor_type;location;lat;lon;timestamp;P1;durP1;ratioP1;P2;durP2;ratioP2
5795;SDS011;2924;51.458;7.046;2023-04-24T00:01:25;1.03;;;0.40;;
5795;SDS011;2924;51.458;7.046;2023-04-24T00:03:51;1.47;;;0.50;;
5795;SDS011;2924;51.458;7.046;2023-04-24T00:06:17;0.93;;;0.60;;
5795;SDS011;2924;51.458;7.046;2023-04-24T00:08:43;0.93;;;0.50;;
5795;SDS011;2924;51.458;7.046;2023-04-24T00:11:08;0.43;;;0.43;;
5795;SDS011;2924;51.458;7.046;2023-04-24T00:13:34;0.50;;;0.50;;
5795;SDS011;2924;51.458;7.046;2023-04-24T00:16:00;1.53;;;0.70;;
5795;SDS011;2924;51.458;7.046;2023-04-24T00:18:26;1.57;;;0.90;;
5795;SDS011;2924;51.458;7.046;2023-04-24T00:20:51;0.60;;;0.50;;
5795;SDS011;2924;51.458;7.046;2023-04-24T00:23:17;0.60;;;0.60;;
5795;SDS011;2924;51.458;7.046;2023-04-24T00:25:42;0.70;;;0.50;;
5795;SDS011;2924;51.458;7.046;2023-04-24T00:28:08;1.00;;;0.50;;
5795;SDS011;2924;51.458;7.046;2023-04-24T00:30:34;0.57;;;0.57;;
5795;SDS011;2924;51.458;7.046;2023-04-24T00:33:00;0.80;;;0.80;;
5795;SDS011;2924;51.458;7.046;2023-04-24T00:35:25;0.73;;;0.60;;
5795;SDS011;2924;51.458;7.046;2023-04-24T00:37:51;0.50;;;0.50;;
5795;SDS011;2924;51.458;7.046;2023-04-24T00:40:16;1.13;;;0.60;;
5795;SDS011;2924;51.458;7.046;2023-04-24T00:42:43;1.27;;;1.00;;
5795;SDS011;2924;51.458;7.046;2023-04-24T00:45:09;2.73;;;0.90;;
5795;SDS011;2924;51.458;7.046;2023-04-24T00:47:35;1.80;;;0.80;;
5795;SDS011;2924;51.458;7.046;2023-04-24T00:50:02;0.90;;;0.77;;
5795;SDS011;2924;51.458;7.046;2023-04-24T00:52:30;4.63;;;0.70;;
5795;SDS011;2924;51.458;7.046;2023-04-24T00:54:56;0.60;;;0.60;;
5795;SDS011;2924;51.458;7.046;2023-04-24T00:57:22;1.67;;;0.80;;
5795;SDS011;2924;51.458;7.046;2023-04-24T00:59:48;1.47;;;0.70;;
5795;SDS011;2924;51.458;7.046;2023-04-24T01:02:14;1.87;;;0.80;;
5795;SDS011;2924;51.458;7.046;2023-04-24T01:04:40;0.60;;;0.60;;
5795;SDS011;2924;51.458;7.046;2023-04-24T01:07:06;1.43;;;0.93;;
5795;SDS011;2924;51.458;7.046;2023-04-24T01:09:35;2.53;;;1.10;;
5795;SDS011;2924;51.458;7.046;2023-04-24T01:12:06;0.90;;;0.90;;
5795;SDS011;2924;51.458;7.046;2023-04-24T01:14:32;0.97;;;0.80;;
5795;SDS011;2924;51.458;7.046;2023-04-24T01:16:58;1.07;;;1.07;;
5795;SDS011;2924;51.458;7.046;2023-04-24T01:19:25;0.87;;;0.87;;
5795;SDS011;2924;51.458;7.046;2023-04-24T01:21:51;1.83;;;1.63;;
5795;SDS011;2924;51.458;7.046;2023-04-24T01:24:19;3.87;;;1.57;;
5795;SDS011;2924;51.458;7.046;2023-04-24T01:26:45;1.50;;;1.40;;
5795;SDS011;2924;51.458;7.046;2023-04-24T01:29:11;1.63;;;1.53;;
5795;SDS011;2924;51.458;7.046;2023-04-24T01:31:37;1.53;;;1.43;;
5795;SDS011;2924;51.458;7.046;2023-04-24T01:34:04;2.13;;;1.50;;
5795;SDS011;2924;51.458;7.046;2023-04-24T01:36:30;2.10;;;1.97;;
5795;SDS011;2924;51.458;7.046;2023-04-24T01:38:57;1.93;;;1.83;;
5795;SDS011;2924;51.458;7.046;2023-04-24T01:41:23;2.73;;;1.87;;
5795;SDS011;2924;51.458;7.046;2023-04-24T01:43:49;2.27;;;2.07;;
5795;SDS011;2924;51.458;7.046;2023-04-24T01:46:15;3.27;;;3.03;;
5795;SDS011;2924;51.458;7.046;2023-04-24T01:48:41;4.00;;;2.43;;
5795;SDS011;2924;51.458;7.046;2023-04-24T01:51:06;7.50;;;4.60;;
5795;SDS011;2924;51.458;7.046;2023-04-24T01:53:32;4.37;;;2.77;;
5795;SDS011;2924;51.458;7.046;2023-04-24T01:55:58;3.93;;;2.70;;
5795;SDS011;2924;51.458;7.046;2023-04-24T01:58:23;2.70;;;2.50;;
5795;SDS011;2924;51.458;7.046;2023-04-24T02:00:49;5.23;;;3.20;;
5795;SDS011;2924;51.458;7.046;2023-04-24T02:03:15;2.17;;;2.07;;
5795;SDS011;2924;51.458;7.046;2023-04-24T02:05:43;2.23;;;2.10;;
5795;SDS011;2924;51.458;7.046;2023-04-24T02:08:10;4.80;;;2.77;;
5795;SDS011;2924;51.458;7.046;2023-04-24T02:10:35;4.80;;;3.10;;
5795;SDS011;2924;51.458;7.046;2023-04-24T02:13:01;3.50;;;3.30;;
5795;SDS011;2924;51.458;7.046;2023-04-24T02:15:27;3.63;;;3.10;;
5795;SDS011;2924;51.458;7.046;2023-04-24T02:17:52;5.33;;;3.33;;
5795;SDS011;2924;51.458;7.046;2023-04-24T02:20:18;9.00;;;4.97;;
5795;SDS011;2924;51.458;7.046;2023-04-24T02:22:44;8.13;;;5.00;;
5795;SDS011;2924;51.458;7.046;2023-04-24T02:25:09;6.90;;;4.97;;
5795;SDS011;2924;51.458;7.046;2023-04-24T02:27:35;5.37;;;4.53;;
5795;SDS011;2924;51.458;7.046;2023-04-24T02:30:01;8.07;;;5.63;;
5795;SDS011;2924;51.458;7.046;2023-04-24T02:32:27;9.00;;;5.03;;
5795;SDS011;2924;51.458;7.046;2023-04-24T02:34:53;7.20;;;5.73;;
5795;SDS011;2924;51.458;7.046;2023-04-24T02:37:18;11.20;;;5.90;;
5795;SDS011;2924;51.458;7.046;2023-04-24T02:39:44;9.03;;;6.10;;
5795;SDS011;2924;51.458;7.046;2023-04-24T02:42:10;8.63;;;5.93;;
5795;SDS011;2924;51.458;7.046;2023-04-24T02:44:35;10.30;;;6.90;;
5795;SDS011;2924;51.458;7.046;2023-04-24T02:47:01;10.47;;;6.40;;
5795;SDS011;2924;51.458;7.046;2023-04-24T02:49:26;7.60;;;6.60;;
5795;SDS011;2924;51.458;7.046;2023-04-24T02:51:52;11.37;;;6.67;;
5795;SDS011;2924;51.458;7.046;2023-04-24T02:54:17;9.77;;;6.90;;
5795;SDS011;2924;51.458;7.046;2023-04-24T02:56:43;16.90;;;8.60;;
5795;SDS011;2924;51.458;7.046;2023-04-24T02:59:08;24.53;;;8.50;;
5795;SDS011;2924;51.458;7.046;2023-04-24T03:01:35;11.23;;;7.87;;
5795;SDS011;2924;51.458;7.046;2023-04-24T03:04:01;11.00;;;7.10;;
5795;SDS011;2924;51.458;7.046;2023-04-24T03:06:27;12.37;;;7.03;;
5795;SDS011;2924;51.458;7.046;2023-04-24T03:08:53;11.30;;;7.57;;
5795;SDS011;2924;51.458;7.046;2023-04-24T03:11:19;13.80;;;7.90;;
5795;SDS011;2924;51.458;7.046;2023-04-24T03:13:45;15.67;;;9.07;;
5795;SDS011;2924;51.458;7.046;2023-04-24T03:16:10;15.70;;;8.13;;
5795;SDS011;2924;51.458;7.046;2023-04-24T03:18:36;13.23;;;8.50;;
5795;SDS011;2924;51.458;7.046;2023-04-24T03:21:01;13.13;;;9.10;;
5795;SDS011;2924;51.458;7.046;2023-04-24T03:23:28;10.17;;;8.47;;
5795;SDS011;2924;51.458;7.046;2023-04-24T03:25:54;12.97;;;8.90;;
5795;SDS011;2924;51.458;7.046;2023-04-24T03:28:20;14.53;;;9.47;;
5795;SDS011;2924;51.458;7.046;2023-04-24T03:30:45;13.77;;;8.20;;
5795;SDS011;2924;51.458;7.046;2023-04-24T03:33:11;12.53;;;9.10;;
5795;SDS011;2924;51.458;7.046;2023-04-24T03:35:36;22.03;;;8.47;;
5795;SDS011;2924;51.458;7.046;2023-04-24T03:38:02;13.07;;;9.40;;
5795;SDS011;2924;51.458;7.046;2023-04-24T03:40:29;13.80;;;9.37;;
5795;SDS011;2924;51.458;7.046;2023-04-24T03:42:55;22.90;;;8.97;;
5795;SDS011;2924;51.458;7.046;2023-04-24T03:45:20;14.73;;;10.57;;
5795;SDS011;2924;51.458;7.046;2023-04-24T03:47:46;15.73;;;8.60;;
5795;SDS011;2924;51.458;7.046;2023-04-24T03:50:12;18.90;;;10.20;;
5795;SDS011;2924;51.458;7.046;2023-04-24T03:52:37;14.10;;;9.77;;
5795;SDS011;2924;51.458;7.046;2023-04-24T03:55:03;15.87;;;9.87;;
5795;SDS011;2924;51.458;7.046;2023-04-24T03:57:29;18.23;;;8.73;;
5795;SDS011;2924;51.458;7.046;2023-04-24T03:59:54;13.23;;;9.23;;
5795;SDS011;2924;51.458;7.046;2023-04-24T04:02:20;17.43;;;8.80;;
5795;SDS011;2924;51.458;7.046;2023-04-24T04:04:46;15.47;;;8.70;;
5795;SDS011;2924;51.458;7.046;2023-04-24T04:07:11;15.57;;;8.93;;
5795;SDS011;2924;51.458;7.046;2023-04-24T04:09:37;10.50;;;8.80;;
5795;SDS011;2924;51.458;7.046;2023-04-24T04:12:03;22.47;;;9.30;;
5795;SDS011;2924;51.458;7.046;2023-04-24T04:14:29;13.57;;;8.90;;
5795;SDS011;2924;51.458;7.046;2023-04-24T04:16:54;13.87;;;7.87;;
5795;SDS011;2924;51.458;7.046;2023-04-24T04:19:20;16.13;;;9.33;;
5795;SDS011;2924;51.458;7.046;2023-04-24T04:21:45;13.40;;;7.97;;
5795;SDS011;2924;51.458;7.046;2023-04-24T04:24:15;14.93;;;8.50;;
5795;SDS011;2924;51.458;7.046;2023-04-24T04:26:41;9.30;;;7.80;;
5795;SDS011;2924;51.458;7.046;2023-04-24T04:29:12;11.37;;;7.27;;
5795;SDS011;2924;51.458;7.046;2023-04-24T04:31:38;12.37;;;7.63;;
5795;SDS011;2924;51.458;7.046;2023-04-24T04:34:04;8.50;;;6.87;;
5795;SDS011;2924;51.458;7.046;2023-04-24T04:36:29;10.47;;;7.90;;
5795;SDS011;2924;51.458;7.046;2023-04-24T04:38:55;13.97;;;7.73;;
5795;SDS011;2924;51.458;7.046;2023-04-24T04:41:21;17.47;;;9.57;;
5795;SDS011;2924;51.458;7.046;2023-04-24T04:43:47;11.17;;;8.00;;
5795;SDS011;2924;51.458;7.046;2023-04-24T04:46:13;11.80;;;7.20;;
5795;SDS011;2924;51.458;7.046;2023-04-24T04:48:38;12.80;;;7.73;;
5795;SDS011;2924;51.458;7.046;2023-04-24T04:51:04;11.30;;;8.07;;
5795;SDS011;2924;51.458;7.046;2023-04-24T04:53:30;8.80;;;7.03;;
5795;SDS011;2924;51.458;7.046;2023-04-24T04:55:55;18.67;;;7.70;;
5795;SDS011;2924;51.458;7.046;2023-04-24T04:58:21;12.70;;;7.67;;
5795;SDS011;2924;51.458;7.046;2023-04-24T05:00:47;11.17;;;7.67;;
5795;SDS011;2924;51.458;7.046;2023-04-24T05:03:13;9.83;;;7.03;;
5795;SDS011;2924;51.458;7.046;2023-04-24T05:05:39;14.03;;;8.80;;
5795;SDS011;2924;51.458;7.046;2023-04-24T05:08:06;14.83;;;8.07;;
5795;SDS011;2924;51.458;7.046;2023-04-24T05:10:34;14.20;;;7.20;;
5795;SDS011;2924;51.458;7.046;2023-04-24T05:13:01;10.17;;;6.80;;
5795;SDS011;2924;51.458;7.046;2023-04-24T05:15:28;12.23;;;7.13;;
5795;SDS011;2924;51.458;7.046;2023-04-24T05:17:54;14.80;;;6.50;;
5795;SDS011;2924;51.458;7.046;2023-04-24T05:20:19;13.13;;;6.57;;
5795;SDS011;2924;51.458;7.046;2023-04-24T05:22:45;8.90;;;5.80;;
5795;SDS011;2924;51.458;7.046;2023-04-24T05:25:10;9.70;;;6.40;;
5795;SDS011;2924;51.458;7.046;2023-04-24T05:27:37;9.20;;;6.80;;
5795;SDS011;2924;51.458;7.046;2023-04-24T05:30:03;7.53;;;6.47;;
5795;SDS011;2924;51.458;7.046;2023-04-24T05:32:29;10.77;;;6.90;;
5795;SDS011;2924;51.458;7.046;2023-04-24T05:34:55;6.80;;;6.10;;
5795;SDS011;2924;51.458;7.046;2023-04-24T05:37:21;9.20;;;7.63;;
5795;SDS011;2924;51.458;7.046;2023-04-24T05:39:46;11.43;;;7.47;;
5795;SDS011;2924;51.458;7.046;2023-04-24T05:42:12;11.97;;;7.47;;
5795;SDS011;2924;51.458;7.046;2023-04-24T05:44:37;12.53;;;8.00;;
5795;SDS011;2924;51.458;7.046;2023-04-24T05:47:03;12.73;;;8.60;;
5795;SDS011;2924;51.458;7.046;2023-04-24T05:49:28;12.63;;;9.23;;
5795;SDS011;2924;51.458;7.046;2023-04-24T05:51:54;10.60;;;8.70;;
5795;SDS011;2924;51.458;7.046;2023-04-24T05:54:19;14.77;;;8.97;;
5795;SDS011;2924;51.458;7.046;2023-04-24T05:56:45;14.00;;;9.80;;
5795;SDS011;2924;51.458;7.046;2023-04-24T05:59:11;15.40;;;9.70;;
5795;SDS011;2924;51.458;7.046;2023-04-24T06:01:37;15.13;;;9.90;;
5795;SDS011;2924;51.458;7.046;2023-04-24T06:04:03;17.20;;;9.20;;
5795;SDS011;2924;51.458;7.046;2023-04-24T06:06:29;12.87;;;9.40;;
5795;SDS011;2924;51.458;7.046;2023-04-24T06:08:55;13.30;;;7.90;;
5795;SDS011;2924;51.458;7.046;2023-04-24T06:11:21;13.47;;;9.13;;
5795;SDS011;2924;51.458;7.046;2023-04-24T06:13:47;8.80;;;7.90;;
5795;SDS011;2924;51.458;7.046;2023-04-24T06:16:13;10.13;;;7.07;;
5795;SDS011;2924;51.458;7.046;2023-04-24T06:18:39;10.30;;;6.83;;
5795;SDS011;2924;51.458;7.046;2023-04-24T06:21:04;11.43;;;6.50;;
5795;SDS011;2924;51.458;7.046;2023-04-24T06:23:30;13.20;;;7.13;;
5795;SDS011;2924;51.458;7.046;2023-04-24T06:25:57;9.43;;;6.20;;
5795;SDS011;2924;51.458;7.046;2023-04-24T06:28:23;9.13;;;6.63;;
5795;SDS011;2924;51.458;7.046;2023-04-24T06:30:48;8.63;;;7.23;;
5795;SDS011;2924;51.458;7.046;2023-04-24T06:33:15;10.27;;;7.20;;
5795;SDS011;2924;51.458;7.046;2023-04-24T06:35:41;12.53;;;7.20;;
5795;SDS011;2924;51.458;7.046;2023-04-24T06:38:07;11.70;;;7.57;;
5795;SDS011;2924;51.458;7.046;2023-04-24T06:40:32;10.23;;;7.87;;
5795;SDS011;2924;51.458;7.046;2023-04-24T06:42:58;11.23;;;7.57;;
5795;SDS011;2924;51.458;7.046;2023-04-24T06:45:25;12.30;;;8.00;;
5795;SDS011;2924;51.458;7.046;2023-04-24T06:47:50;7.70;;;6.90;;
5795;SDS011;2924;51.458;7.046;2023-04-24T06:50:16;7.07;;;5.97;;
5795;SDS011;2924;51.458;7.046;2023-04-24T06:52:42;8.33;;;7.23;;
5795;SDS011;2924;51.458;7.046;2023-04-24T06:55:07;9.40;;;6.70;;
5795;SDS011;2924;51.458;7.046;2023-04-24T06:57:33;8.80;;;6.90;;
5795;SDS011;2924;51.458;7.046;2023-04-24T06:59:59;9.10;;;6.97;;
5795;SDS011;2924;51.458;7.046;2023-04-24T07:02:24;11.00;;;6.43;;
5795;SDS011;2924;51.458;7.046;2023-04-24T07:04:50;8.00;;;7.10;;
5795;SDS011;2924;51.458;7.046;2023-04-24T07:07:16;10.67;;;6.70;;
5795;SDS011;2924;51.458;7.046;2023-04-24T07:09:41;6.83;;;5.43;;
5795;SDS011;2924;51.458;7.046;2023-04-24T07:12:07;12.70;;;7.03;;
5795;SDS011;2924;51.458;7.046;2023-04-24T07:14:33;11.83;;;6.37;;
5795;SDS011;2924;51.458;7.046;2023-04-24T07:16:59;7.73;;;4.63;;
5795;SDS011;2924;51.458;7.046;2023-04-24T07:19:26;6.47;;;4.60;;
5795;SDS011;2924;51.458;7.046;2023-04-24T07:21:51;5.43;;;4.63;;
5795;SDS011;2924;51.458;7.046;2023-04-24T07:24:18;5.10;;;4.70;;
5795;SDS011;2924;51.458;7.046;2023-04-24T07:26:44;4.43;;;3.90;;
5795;SDS011;2924;51.458;7.046;2023-04-24T07:29:11;6.03;;;3.83;;
5795;SDS011;2924;51.458;7.046;2023-04-24T07:31:37;4.20;;;3.20;;
5795;SDS011;2924;51.458;7.046;2023-04-24T07:34:03;4.00;;;3.50;;
5795;SDS011;2924;51.458;7.046;2023-04-24T07:36:29;3.87;;;3.50;;
5795;SDS011;2924;51.458;7.046;2023-04-24T07:38:55;2.97;;;2.70;;
5795;SDS011;2924;51.458;7.046;2023-04-24T07:41:21;3.47;;;2.50;;
5795;SDS011;2924;51.458;7.046;2023-04-24T07:43:47;4.57;;;2.17;;
5795;SDS011;2924;51.458;7.046;2023-04-24T07:46:13;2.10;;;2.00;;
5795;SDS011;2924;51.458;7.046;2023-04-24T07:48:38;1.80;;;1.70;;
5795;SDS011;2924;51.458;7.046;2023-04-24T07:51:04;1.20;;;1.20;;
5795;SDS011;2924;51.458;7.046;2023-04-24T07:53:30;1.80;;;1.33;;
5795;SDS011;2924;51.458;7.046;2023-04-24T07:55:55;1.43;;;1.30;;
5795;SDS011;2924;51.458;7.046;2023-04-24T07:58:21;1.00;;;0.90;;
5795;SDS011;2924;51.458;7.046;2023-04-24T08:00:47;0.50;;;0.50;;
5795;SDS011;2924;51.458;7.046;2023-04-24T08:03:13;0.83;;;0.47;;
5795;SDS011;2924;51.458;7.046;2023-04-24T08:05:38;0.50;;;0.50;;
5795;SDS011;2924;51.458;7.046;2023-04-24T08:08:05;0.50;;;0.50;;
5795;SDS011;2924;51.458;7.046;2023-04-24T08:10:31;1.13;;;0.50;;
5795;SDS011;2924;51.458;7.046;2023-04-24T08:12:56;0.40;;;0.40;;
5795;SDS011;2924;51.458;7.046;2023-04-24T08:15:22;3.60;;;0.67;;
5795;SDS011;2924;51.458;7.046;2023-04-24T08:17:47;0.53;;;0.50;;
5795;SDS011;2924;51.458;7.046;2023-04-24T08:20:13;0.50;;;0.50;;
5795;SDS011;2924;51.458;7.046;2023-04-24T08:22:39;0.40;;;0.40;;
5795;SDS011;2924;51.458;7.046;2023-04-24T08:25:05;0.67;;;0.57;;
5795;SDS011;2924;51.458;7.046;2023-04-24T08:27:32;0.70;;;0.67;;
5795;SDS011;2924;51.458;7.046;2023-04-24T08:29:57;0.73;;;0.70;;
5795;SDS011;2924;51.458;7.046;2023-04-24T08:32:26;1.03;;;0.50;;
5795;SDS011;2924;51.458;7.046;2023-04-24T08:34:53;0.90;;;0.60;;
5795;SDS011;2924;51.458;7.046;2023-04-24T08:37:21;0.93;;;0.70;;
5795;SDS011;2924;51.458;7.046;2023-04-24T08:39:47;0.90;;;0.90;;
5795;SDS011;2924;51.458;7.046;2023-04-24T08:42:12;0.97;;;0.70;;
5795;SDS011;2924;51.458;7.046;2023-04-24T08:44:39;1.40;;;1.30;;
5795;SDS011;2924;51.458;7.046;2023-04-24T08:47:05;1.10;;;1.10;;
5795;SDS011;2924;51.458;7.046;2023-04-24T08:49:33;1.63;;;1.63;;
5795;SDS011;2924;51.458;7.046;2023-04-24T08:52:00;1.43;;;1.37;;
5795;SDS011;2924;51.458;7.046;2023-04-24T08:54:27;2.00;;;1.73;;
5795;SDS011;2924;51.458;7.046;2023-04-24T08:56:53;2.83;;;2.03;;
5795;SDS011;2924;51.458;7.046;2023-04-24T08:59:25;2.07;;;1.97;;
5795;SDS011;2924;51.458;7.046;2023-04-24T09:01:51;2.57;;;2.30;;
5795;SDS011;2924;51.458;7.046;2023-04-24T09:04:18;4.53;;;2.47;;
5795;SDS011;2924;51.458;7.046;2023-04-24T09:06:46;2.13;;;2.03;;
5795;SDS011;2924;51.458;7.046;2023-04-24T09:09:16;1.83;;;1.73;;
5795;SDS011;2924;51.458;7.046;2023-04-24T09:11:43;1.90;;;1.77;;
5795;SDS011;2924;51.458;7.046;2023-04-24T09:14:09;1.37;;;1.37;;
5795;SDS011;2924;51.458;7.046;2023-04-24T09:16:35;2.57;;;1.40;;
5795;SDS011;2924;51.458;7.046;2023-04-24T09:19:01;1.80;;;1.43;;
5795;SDS011;2924;51.458;7.046;2023-04-24T09:21:31;1.47;;;1.37;;
5795;SDS011;2924;51.458;7.046;2023-04-24T09:24:01;1.43;;;1.33;;
5795;SDS011;2924;51.458;7.046;2023-04-24T09:26:30;1.77;;;1.20;;
5795;SDS011;2924;51.458;7.046;2023-04-24T09:28:57;2.63;;;1.53;;
5795;SDS011;2924;51.458;7.046;2023-04-24T09:31:23;4.33;;;2.60;;
5795;SDS011;2924;51.458;7.046;2023-04-24T09:36:28;5.93;;;4.80;;
5795;SDS011;2924;51.458;7.046;2023-04-24T09:38:58;10.47;;;5.33;;
5795;SDS011;2924;51.458;7.046;2023-04-24T09:41:25;5.93;;;4.97;;
5795;SDS011;2924;51.458;7.046;2023-04-24T09:43:52;9.10;;;5.70;;
5795;SDS011;2924;51.458;7.046;2023-04-24T09:46:18;5.80;;;5.30;;
5795;SDS011;2924;51.458;7.046;2023-04-24T09:48:44;6.30;;;4.93;;
5795;SDS011;2924;51.458;7.046;2023-04-24T09:51:10;9.40;;;5.83;;
5795;SDS011;2924;51.458;7.046;2023-04-24T09:53:37;11.87;;;5.90;;
5795;SDS011;2924;51.458;7.046;2023-04-24T09:56:10;4.83;;;4.33;;
5795;SDS011;2924;51.458;7.046;2023-04-24T09:58:37;5.80;;;3.93;;
5795;SDS011;2924;51.458;7.046;2023-04-24T10:01:04;4.53;;;3.50;;
5795;SDS011;2924;51.458;7.046;2023-04-24T10:03:30;4.80;;;3.70;;
5795;SDS011;2924;51.458;7.046;2023-04-24T10:06:00;4.70;;;4.30;;
5795;SDS011;2924;51.458;7.046;2023-04-24T10:08:26;5.43;;;4.73;;
5795;SDS011;2924;51.458;7.046;2023-04-24T10:10:57;7.53;;;5.00;;
5795;SDS011;2924;51.458;7.046;2023-04-24T10:13:24;8.30;;;5.40;;
5795;SDS011;2924;51.458;7.046;2023-04-24T10:15:50;7.03;;;4.93;;
5795;SDS011;2924;51.458;7.046;2023-04-24T10:18:16;8.73;;;5.50;;
5795;SDS011;2924;51.458;7.046;2023-04-24T10:20:42;9.03;;;6.10;;
5795;SDS011;2924;51.458;7.046;2023-04-24T10:23:08;12.40;;;8.07;;
5795;SDS011;2924;51.458;7.046;2023-04-24T10:25:34;9.63;;;6.33;;
5795;SDS011;2924;51.458;7.046;2023-04-24T10:28:02;6.80;;;5.73;;
5795;SDS011;2924;51.458;7.046;2023-04-24T10:30:32;11.67;;;6.77;;
5795;SDS011;2924;51.458;7.046;2023-04-24T10:33:02;12.23;;;6.43;;
5795;SDS011;2924;51.458;7.046;2023-04-24T10:35:35;11.73;;;6.60;;
5795;SDS011;2924;51.458;7.046;2023-04-24T10:38:06;12.50;;;5.67;;
5795;SDS011;2924;51.458;7.046;2023-04-24T10:40:35;10.83;;;5.30;;
5795;SDS011;2924;51.458;7.046;2023-04-24T10:43:05;9.07;;;5.30;;
5795;SDS011;2924;51.458;7.046;2023-04-24T10:45:33;17.33;;;6.23;;
5795;SDS011;2924;51.458;7.046;2023-04-24T10:50:29;12.00;;;5.30;;
5795;SDS011;2924;51.458;7.046;2023-04-24T10:53:07;13.47;;;5.33;;
5795;SDS011;2924;51.458;7.046;2023-04-24T10:55:41;11.10;;;6.10;;
5795;SDS011;2924;51.458;7.046;2023-04-24T10:58:15;15.20;;;6.33;;
5795;SDS011;2924;51.458;7.046;2023-04-24T11:00:42;15.27;;;6.80;;
5795;SDS011;2924;51.458;7.046;2023-04-24T11:03:23;17.83;;;5.97;;
5795;SDS011;2924;51.458;7.046;2023-04-24T11:08:30;10.90;;;4.93;;
5795;SDS011;2924;51.458;7.046;2023-04-24T11:11:17;12.93;;;6.07;;
5795;SDS011;2924;51.458;7.046;2023-04-24T11:18:59;12.97;;;5.10;;
5795;SDS011;2924;51.458;7.046;2023-04-24T11:21:42;17.50;;;5.13;;
5795;SDS011;2924;51.458;7.046;2023-04-24T11:27:13;13.47;;;5.77;;
5795;SDS011;2924;51.458;7.046;2023-04-24T11:29:58;22.17;;;4.50;;
5795;SDS011;2924;51.458;7.046;2023-04-24T11:32:29;12.57;;;4.77;;
5795;SDS011;2924;51.458;7.046;2023-04-24T11:34:56;12.20;;;4.70;;
5795;SDS011;2924;51.458;7.046;2023-04-24T11:37:34;11.00;;;5.03;;
5795;SDS011;2924;51.458;7.046;2023-04-24T11:40:01;14.73;;;4.90;;
5795;SDS011;2924;51.458;7.046;2023-04-24T11:42:28;11.37;;;4.50;;
5795;SDS011;2924;51.458;7.046;2023-04-24T11:45:09;8.40;;;4.67;;
5795;SDS011;2924;51.458;7.046;2023-04-24T11:47:35;11.93;;;4.93;;
5795;SDS011;2924;51.458;7.046;2023-04-24T11:50:01;13.77;;;4.13;;
5795;SDS011;2924;51.458;7.046;2023-04-24T11:52:29;17.83;;;4.43;;
5795;SDS011;2924;51.458;7.046;2023-04-24T11:54:55;14.57;;;3.90;;
5795;SDS011;2924;51.458;7.046;2023-04-24T11:57:22;16.13;;;2.90;;
5795;SDS011;2924;51.458;7.046;2023-04-24T11:59:51;20.53;;;3.73;;
5795;SDS011;2924;51.458;7.046;2023-04-24T12:02:20;13.90;;;3.87;;
5795;SDS011;2924;51.458;7.046;2023-04-24T12:04:51;5.70;;;3.93;;
5795;SDS011;2924;51.458;7.046;2023-04-24T12:07:18;5.60;;;2.93;;
5795;SDS011;2924;51.458;7.046;2023-04-24T12:09:44;5.07;;;2.27;;
5795;SDS011;2924;51.458;7.046;2023-04-24T12:12:15;12.53;;;3.37;;
5795;SDS011;2924;51.458;7.046;2023-04-24T12:14:48;11.10;;;3.00;;
5795;SDS011;2924;51.458;7.046;2023-04-24T12:17:23;7.73;;;2.87;;
5795;SDS011;2924;51.458;7.046;2023-04-24T12:20:03;9.33;;;2.67;;
5795;SDS011;2924;51.458;7.046;2023-04-24T12:25:09;8.73;;;2.27;;
5795;SDS011;2924;51.458;7.046;2023-04-24T12:27:35;10.17;;;3.03;;
5795;SDS011;2924;51.458;7.046;2023-04-24T12:30:03;10.70;;;3.20;;
5795;SDS011;2924;51.458;7.046;2023-04-24T12:32:30;6.03;;;2.77;;
5795;SDS011;2924;51.458;7.046;2023-04-24T12:34:56;11.27;;;3.97;;
5795;SDS011;2924;51.458;7.046;2023-04-24T12:37:23;9.70;;;3.10;;
5795;SDS011;2924;51.458;7.046;2023-04-24T12:40:00;7.30;;;2.77;;
5795;SDS011;2924;51.458;7.046;2023-04-24T12:42:33;6.30;;;3.60;;
5795;SDS011;2924;51.458;7.046;2023-04-24T12:45:05;4.53;;;3.23;;
5795;SDS011;2924;51.458;7.046;2023-04-24T12:47:32;3.07;;;1.70;;
5795;SDS011;2924;51.458;7.046;2023-04-24T12:49:58;3.13;;;1.60;;
5795;SDS011;2924;51.458;7.046;2023-04-24T12:52:25;8.30;;;2.07;;
5795;SDS011;2924;51.458;7.046;2023-04-24T12:54:52;4.37;;;1.27;;
5795;SDS011;2924;51.458;7.046;2023-04-24T12:57:19;2.83;;;1.53;;
5795;SDS011;2924;51.458;7.046;2023-04-24T12:59:46;1.20;;;1.20;;
5795;SDS011;2924;51.458;7.046;2023-04-24T13:02:11;4.60;;;1.60;;
5795;SDS011;2924;51.458;7.046;2023-04-24T13:04:37;2.87;;;1.30;;
5795;SDS011;2924;51.458;7.046;2023-04-24T13:07:03;3.57;;;1.80;;
5795;SDS011;2924;51.458;7.046;2023-04-24T13:09:29;22.73;;;2.90;;
5795;SDS011;2924;51.458;7.046;2023-04-24T13:11:55;2.20;;;1.90;;
5795;SDS011;2924;51.458;7.046;2023-04-24T13:14:21;1.70;;;1.60;;
5795;SDS011;2924;51.458;7.046;2023-04-24T13:16:47;5.83;;;1.90;;
5795;SDS011;2924;51.458;7.046;2023-04-24T13:19:14;7.30;;;1.67;;
5795;SDS011;2924;51.458;7.046;2023-04-24T13:21:40;4.20;;;1.50;;
5795;SDS011;2924;51.458;7.046;2023-04-24T13:24:05;1.23;;;0.90;;
5795;SDS011;2924;51.458;7.046;2023-04-24T13:26:33;5.17;;;1.47;;
5795;SDS011;2924;51.458;7.046;2023-04-24T13:28:58;3.20;;;1.47;;
5795;SDS011;2924;51.458;7.046;2023-04-24T13:31:24;3.40;;;0.80;;
5795;SDS011;2924;51.458;7.046;2023-04-24T13:33:50;5.00;;;1.23;;
5795;SDS011;2924;51.458;7.046;2023-04-24T13:36:15;8.03;;;0.80;;
5795;SDS011;2924;51.458;7.046;2023-04-24T13:38:42;7.67;;;1.40;;
5795;SDS011;2924;51.458;7.046;2023-04-24T13:41:09;2.37;;;1.47;;
5795;SDS011;2924;51.458;7.046;2023-04-24T13:43:35;3.63;;;1.33;;
5795;SDS011;2924;51.458;7.046;2023-04-24T13:46:00;9.23;;;1.20;;
5795;SDS011;2924;51.458;7.046;2023-04-24T13:48:28;2.87;;;1.10;;
5795;SDS011;2924;51.458;7.046;2023-04-24T13:50:54;3.23;;;0.90;;
5795;SDS011;2924;51.458;7.046;2023-04-24T13:53:19;3.77;;;1.00;;
5795;SDS011;2924;51.458;7.046;2023-04-24T13:55:45;3.60;;;1.40;;
5795;SDS011;2924;51.458;7.046;2023-04-24T13:58:11;5.47;;;1.20;;
5795;SDS011;2924;51.458;7.046;2023-04-24T14:00:36;4.40;;;1.10;;
5795;SDS011;2924;51.458;7.046;2023-04-24T14:03:02;1.90;;;0.67;;
5795;SDS011;2924;51.458;7.046;2023-04-24T14:05:27;2.00;;;1.00;;
5795;SDS011;2924;51.458;7.046;2023-04-24T14:07:53;7.60;;;1.27;;
5795;SDS011;2924;51.458;7.046;2023-04-24T14:10:19;7.93;;;1.00;;
5795;SDS011;2924;51.458;7.046;2023-04-24T14:12:44;2.20;;;0.87;;
5795;SDS011;2924;51.458;7.046;2023-04-24T14:15:10;1.27;;;1.07;;
5795;SDS011;2924;51.458;7.046;2023-04-24T14:17:39;3.00;;;0.90;;
5795;SDS011;2924;51.458;7.046;2023-04-24T14:20:05;3.23;;;1.30;;
5795;SDS011;2924;51.458;7.046;2023-04-24T14:22:32;4.83;;;1.07;;
5795;SDS011;2924;51.458;7.046;2023-04-24T14:24:57;1.43;;;0.90;;
5795;SDS011;2924;51.458;7.046;2023-04-24T14:27:23;9.57;;;1.27;;
5795;SDS011;2924;51.458;7.046;2023-04-24T14:29:50;1.63;;;1.03;;
5795;SDS011;2924;51.458;7.046;2023-04-24T14:32:15;2.33;;;1.33;;
5795;SDS011;2924;51.458;7.046;2023-04-24T14:34:41;1.53;;;0.93;;
5795;SDS011;2924;51.458;7.046;2023-04-24T14:37:07;4.93;;;0.93;;
5795;SDS011;2924;51.458;7.046;2023-04-24T14:39:32;1.87;;;1.40;;
5795;SDS011;2924;51.458;7.046;2023-04-24T14:41:58;1.60;;;0.93;;
5795;SDS011;2924;51.458;7.046;2023-04-24T14:44:25;4.73;;;1.27;;
5795;SDS011;2924;51.458;7.046;2023-04-24T14:46:51;3.90;;;0.90;;
5795;SDS011;2924;51.458;7.046;2023-04-24T14:49:16;6.27;;;1.13;;
5795;SDS011;2924;51.458;7.046;2023-04-24T14:51:42;2.83;;;0.80;;
5795;SDS011;2924;51.458;7.046;2023-04-24T14:54:08;2.50;;;1.20;;
5795;SDS011;2924;51.458;7.046;2023-04-24T14:56:34;3.70;;;1.20;;
5795;SDS011;2924;51.458;7.046;2023-04-24T14:58:59;3.90;;;1.23;;
5795;SDS011;2924;51.458;7.046;2023-04-24T15:01:25;2.67;;;1.03;;
5795;SDS011;2924;51.458;7.046;2023-04-24T15:03:51;3.00;;;1.40;;
5795;SDS011;2924;51.458;7.046;2023-04-24T15:06:16;3.10;;;1.90;;
5795;SDS011;2924;51.458;7.046;2023-04-24T15:08:42;3.70;;;1.47;;
5795;SDS011;2924;51.458;7.046;2023-04-24T15:11:08;3.30;;;2.13;;
5795;SDS011;2924;51.458;7.046;2023-04-24T15:13:34;1.93;;;1.70;;
5795;SDS011;2924;51.458;7.046;2023-04-24T15:16:00;2.30;;;1.83;;
5795;SDS011;2924;51.458;7.046;2023-04-24T15:18:26;4.03;;;2.00;;
5795;SDS011;2924;51.458;7.046;2023-04-24T15:20:53;2.50;;;1.70;;
5795;SDS011;2924;51.458;7.046;2023-04-24T15:23:19;2.33;;;1.67;;
5795;SDS011;2924;51.458;7.046;2023-04-24T15:25:45;1.97;;;1.77;;